Time;durP1;ratioP1;P1;durP2;ratioP2;P2;SDS_P1;SDS_P2;PMS_P1;PMS_P2;Temp;Humidity;BMP_temperature;BMP_pressure;BME280_temperature;BME280_humidity;BME280_pressure;Samples;Min_cycle;Max_cycle;Signal;HPM_P1;HPM_P2
2022/08/13 00:01:20;;;;;;;16.30;14.57;;;20.10;49.50;;;;;;5060136;28;20460;-68
2022/08/13 00:03:48;;;;;;;14.23;13.13;;;20.10;49.80;;;;;;5053564;28;20822;-68
2022/08/13 00:06:23;;;;;;;17.37;13.63;;;20.10;49.00;;;;;;5050938;28;20471;-68
2022/08/13 00:08:51;;;;;;;14.17;13.13;;;20.20;49.30;;;;;;5054023;28;20859;-67
2022/08/13 00:14:00;;;;;;;14.47;13.20;;;20.20;49.30;;;;;;5060994;28;20498;-68
2022/08/13 00:16:28;;;;;;;15.17;13.63;;;20.20;49.40;;;;;;5054733;28;20451;-67
2022/08/13 00:18:55;;;;;;;16.10;13.13;;;20.30;49.60;;;;;;5054725;28;20887;-67
2022/08/13 00:21:23;;;;;;;24.33;13.60;;;20.30;49.20;;;;;;5052703;28;20455;-67
2022/08/13 00:23:57;;;;;;;19.43;13.77;;;20.30;49.30;;;;;;5058811;28;20477;-67
2022/08/13 00:26:26;;;;;;;22.07;13.40;;;20.20;48.90;;;;;;5060308;28;20466;-66
2022/08/13 00:28:54;;;;;;;16.10;14.47;;;20.10;49.10;;;;;;5053470;28;20483;-67
2022/08/13 00:31:23;;;;;;;15.33;14.07;;;20.10;49.50;;;;;;5063297;28;20540;-68
2022/08/13 00:33:57;;;;;;;17.00;14.17;;;20.00;49.40;;;;;;5060764;28;20992;-68
2022/08/13 00:36:24;;;;;;;17.33;13.60;;;20.10;49.50;;;;;;5058691;28;20459;-68
2022/08/13 00:38:53;;;;;;;23.83;13.67;;;20.10;49.50;;;;;;5049552;28;20867;-67
2022/08/13 00:44:06;;;;;;;15.00;13.37;;;20.20;49.60;;;;;;5056944;28;20455;-67
2022/08/13 00:46:33;;;;;;;14.23;13.13;;;20.20;49.50;;;;;;5059768;28;20479;-68
2022/08/13 00:49:01;;;;;;;19.20;14.80;;;20.10;49.50;;;;;;5055644;28;20847;-67
2022/08/13 00:51:29;;;;;;;15.03;13.83;;;20.10;49.60;;;;;;5058876;28;20455;-68
2022/08/13 00:54:00;;;;;;;15.77;14.17;;;20.10;49.80;;;;;;5056030;28;20855;-68
2022/08/13 00:56:30;;;;;;;16.80;14.00;;;20.10;49.80;;;;;;5058363;28;20463;-68
2022/08/13 00:58:59;;;;;;;14.40;13.60;;;20.00;49.80;;;;;;5057342;28;20495;-68
2022/08/13 01:01:30;;;;;;;15.23;14.23;;;20.00;50.00;;;;;;5062196;28;20949;-67
2022/08/13 01:03:58;;;;;;;17.47;14.10;;;19.90;50.10;;;;;;5057699;28;20455;-68
2022/08/13 01:06:25;;;;;;;20.83;14.83;;;19.90;50.10;;;;;;5055010;28;20840;-67
2022/08/13 01:08:53;;;;;;;15.27;13.83;;;19.90;50.30;;;;;;5061092;28;21072;-68
2022/08/13 01:11:22;;;;;;;15.93;14.70;;;19.80;50.60;;;;;;5059347;28;20460;-67
2022/08/13 01:13:51;;;;;;;15.97;14.63;;;19.70;50.40;;;;;;5050416;28;20494;-67
2022/08/13 01:16:19;;;;;;;16.80;14.23;;;19.70;50.70;;;;;;5054562;28;20486;-67
2022/08/13 01:18:50;;;;;;;16.00;14.50;;;19.60;50.90;;;;;;5063038;28;20490;-67
2022/08/13 01:21:19;;;;;;;18.10;14.80;;;19.60;50.70;;;;;;5050823;28;20464;-68
2022/08/13 01:23:50;;;;;;;23.60;15.30;;;19.50;51.00;;;;;;5055298;28;20458;-67
2022/08/13 01:26:20;;;;;;;17.60;15.40;;;19.50;51.10;;;;;;5056370;28;20464;-68
2022/08/13 01:29:05;;;;;;;16.53;14.93;;;19.40;51.00;;;;;;5058022;28;20459;-67
2022/08/13 01:31:34;;;;;;;17.63;15.80;;;19.30;51.00;;;;;;5055787;28;20471;-68
2022/08/13 01:34:01;;;;;;;17.57;15.67;;;19.30;51.60;;;;;;5054272;28;20466;-67
2022/08/13 01:36:29;;;;;;;17.40;15.70;;;19.20;52.20;;;;;;5056458;28;20534;-68
2022/08/13 01:39:04;;;;;;;18.00;15.23;;;19.20;51.90;;;;;;5051913;28;20502;-67
2022/08/13 01:41:32;;;;;;;18.00;16.30;;;19.10;51.80;;;;;;5058637;28;20475;-68
2022/08/13 01:44:04;;;;;;;19.67;15.90;;;19.00;52.10;;;;;;5054567;28;20471;-68
2022/08/13 01:50:28;;;;;;;17.90;16.00;;;19.00;52.60;;;;;;5056703;28;20482;-67
2022/08/13 01:52:07;;;;;;;15.90;15.00;;;18.90;53.60;;;;;;5056257;28;20454;-68
2022/08/13 01:54:36;;;;;;;16.60;15.17;;;18.90;54.00;;;;;;5054303;28;20914;-68
2022/08/13 01:57:05;;;;;;;16.40;15.40;;;18.90;53.60;;;;;;5057457;28;20976;-68
2022/08/13 01:59:34;;;;;;;16.60;15.27;;;18.80;53.70;;;;;;5056510;28;20491;-67
2022/08/13 02:02:04;;;;;;;17.10;15.70;;;18.80;53.70;;;;;;5057806;28;20532;-67
2022/08/13 02:04:33;;;;;;;16.10;15.03;;;18.80;54.00;;;;;;5055247;28;20451;-67
2022/08/13 02:07:02;;;;;;;16.53;15.10;;;18.80;54.40;;;;;;5055082;28;20502;-68
2022/08/13 02:09:28;;;;;;;15.23;14.20;;;18.80;54.60;;;;;;5061515;28;20461;-67
2022/08/13 02:11:57;;;;;;;15.00;14.00;;;18.80;55.20;;;;;;5054582;28;20490;-67
2022/08/13 02:14:24;;;;;;;15.70;14.50;;;18.80;55.20;;;;;;5057440;28;20495;-68
2022/08/13 02:16:53;;;;;;;16.10;14.83;;;18.90;55.40;;;;;;5057187;28;20455;-68
2022/08/13 02:19:19;;;;;;;17.17;15.70;;;18.90;56.00;;;;;;5053790;28;20492;-68
2022/08/13 02:21:46;;;;;;;22.60;15.33;;;19.00;55.70;;;;;;5055134;28;20463;-67
2022/08/13 02:24:15;;;;;;;17.30;15.00;;;19.00;55.30;;;;;;5052160;28;20794;-68
2022/08/13 02:26:44;;;;;;;16.10;14.43;;;18.90;55.50;;;;;;5054753;28;20464;-67
2022/08/13 02:29:14;;;;;;;16.27;15.00;;;18.90;55.60;;;;;;5056032;28;20460;-67
2022/08/13 02:31:43;;;;;;;15.87;14.87;;;18.90;55.80;;;;;;5054416;28;20467;-68
2022/08/13 02:34:12;;;;;;;16.30;15.20;;;18.90;56.70;;;;;;5057394;28;20461;-67
2022/08/13 02:36:40;;;;;;;16.27;14.80;;;18.90;56.10;;;;;;5060260;28;20960;-68
2022/08/13 02:39:10;;;;;;;17.23;15.60;;;18.90;56.10;;;;;;5058397;28;20491;-68
2022/08/13 02:41:39;;;;;;;17.03;15.33;;;18.90;56.30;;;;;;5053746;28;20463;-67
2022/08/13 02:44:08;;;;;;;16.80;15.27;;;19.00;56.60;;;;;;5053285;28;20467;-67
2022/08/13 02:46:36;;;;;;;16.77;15.30;;;18.90;56.40;;;;;;5052385;28;20462;-68
2022/08/13 02:49:04;;;;;;;21.53;15.67;;;18.90;56.40;;;;;;5050346;28;20507;-67
2022/08/13 02:51:32;;;;;;;16.23;15.13;;;18.90;57.20;;;;;;5048999;28;20451;-68
2022/08/13 02:54:01;;;;;;;16.30;15.10;;;18.80;56.80;;;;;;5053224;28;20455;-67
2022/08/13 02:56:29;;;;;;;16.00;14.90;;;18.70;57.30;;;;;;5053271;28;21362;-67
2022/08/13 02:58:59;;;;;;;16.27;14.93;;;18.70;57.60;;;;;;5049380;28;21020;-67
2022/08/13 03:01:26;;;;;;;16.33;15.20;;;18.70;57.10;;;;;;5059561;28;20471;-68
2022/08/13 03:03:55;;;;;;;24.33;14.77;;;18.70;57.30;;;;;;5049601;28;20467;-67
2022/08/13 03:06:23;;;;;;;16.33;15.20;;;18.60;57.40;;;;;;5057792;28;20482;-68
2022/08/13 03:08:51;;;;;;;15.53;14.40;;;18.60;57.40;;;;;;5057718;28;20498;-67
2022/08/13 03:11:20;;;;;;;21.47;15.43;;;18.70;58.30;;;;;;5054546;28;20464;-68
2022/08/13 03:13:53;;;;;;;15.60;14.60;;;18.70;57.90;;;;;;5057652;28;20479;-68
2022/08/13 03:16:24;;;;;;;17.67;15.83;;;18.60;58.30;;;;;;5054257;28;20479;-67
2022/08/13 03:18:53;;;;;;;23.60;15.40;;;18.50;57.90;;;;;;5051820;28;20502;-67
2022/08/13 03:21:24;;;;;;;15.60;14.70;;;18.50;58.20;;;;;;5050216;28;20522;-66
2022/08/13 03:23:53;;;;;;;16.27;15.07;;;18.50;58.80;;;;;;5057481;28;20463;-67
2022/08/13 03:26:24;;;;;;;20.00;15.30;;;18.40;58.50;;;;;;5054702;28;20471;-67
2022/08/13 03:28:52;;;;;;;17.10;15.70;;;18.40;59.30;;;;;;5052149;28;20475;-68
2022/08/13 03:31:19;;;;;;;16.33;15.33;;;18.40;59.40;;;;;;5057142;28;20972;-68
2022/08/13 03:33:46;;;;;;;15.70;14.40;;;18.40;59.70;;;;;;5052288;28;20467;-68
2022/08/13 03:36:15;;;;;;;15.93;14.43;;;18.40;59.80;;;;;;5052735;28;21058;-68
2022/08/13 03:38:43;;;;;;;15.23;14.30;;;18.40;60.40;;;;;;5056369;28;20535;-67
2022/08/13 03:41:12;;;;;;;15.70;14.67;;;18.40;59.60;;;;;;5060990;28;20929;-68
2022/08/13 03:43:42;;;;;;;16.03;14.90;;;18.40;60.50;;;;;;5057547;28;20450;-68
2022/08/13 03:46:12;;;;;;;15.57;14.57;;;18.40;61.20;;;;;;5058179;28;20969;-67
2022/08/13 03:48:39;;;;;;;15.43;14.53;;;18.40;62.40;;;;;;5056766;28;20480;-66
2022/08/13 03:51:09;;;;;;;15.90;14.73;;;18.40;61.80;;;;;;5055091;28;20466;-67
2022/08/13 03:53:38;;;;;;;16.17;14.83;;;18.50;61.10;;;;;;5059270;28;20473;-67
2022/08/13 03:56:08;;;;;;;15.97;14.67;;;18.50;61.20;;;;;;5055179;28;20464;-67
2022/08/13 03:58:37;;;;;;;16.30;15.07;;;18.50;61.90;;;;;;5059278;28;20498;-67
2022/08/13 04:01:05;;;;;;;16.03;14.90;;;18.40;62.30;;;;;;5057463;28;20463;-68
2022/08/13 04:03:36;;;;;;;15.43;14.33;;;18.30;62.30;;;;;;5034883;28;20477;-68
2022/08/13 04:06:06;;;;;;;15.43;14.43;;;18.40;63.70;;;;;;5030554;28;21032;-68
2022/08/13 04:08:35;;;;;;;16.30;15.30;;;18.40;63.70;;;;;;5030207;28;20450;-68
2022/08/13 04:11:04;;;;;;;15.83;14.67;;;18.30;63.30;;;;;;5029601;28;20562;-68
2022/08/13 04:13:36;;;;;;;16.47;15.07;;;18.30;63.60;;;;;;5029194;28;20474;-67
2022/08/13 04:16:06;;;;;;;15.90;14.80;;;18.30;63.30;;;;;;5030428;28;20477;-67
2022/08/13 04:18:35;;;;;;;16.23;14.60;;;18.20;63.40;;;;;;5031494;28;20462;-68
2022/08/13 04:21:03;;;;;;;16.87;15.50;;;18.20;65.30;;;;;;5032285;28;20497;-68
2022/08/13 04:23:30;;;;;;;16.13;14.77;;;18.10;66.40;;;;;;5031798;28;20468;-68
2022/08/13 04:25:58;;;;;;;16.37;14.83;;;18.10;67.60;;;;;;5030413;28;20460;-68
2022/08/13 04:28:24;;;;;;;16.57;15.27;;;18.10;65.70;;;;;;5031728;28;20502;-68
2022/08/13 04:30:53;;;;;;;16.80;15.43;;;18.00;67.60;;;;;;5031311;28;20470;-68
2022/08/13 04:33:20;;;;;;;21.23;15.27;;;18.00;69.00;;;;;;5031444;28;20463;-68
2022/08/13 04:35:47;;;;;;;17.07;15.77;;;17.90;71.90;;;;;;5031107;28;20464;-68
2022/08/13 04:38:15;;;;;;;16.43;14.60;;;17.90;73.10;;;;;;5030596;28;20451;-68
2022/08/13 04:40:44;;;;;;;20.33;14.67;;;17.80;72.80;;;;;;5029113;28;21051;-67
2022/08/13 04:43:13;;;;;;;15.83;14.37;;;17.80;71.40;;;;;;5027329;28;20460;-67
2022/08/13 04:45:41;;;;;;;16.50;15.27;;;17.80;71.70;;;;;;5029395;28;21074;-68
2022/08/13 04:48:12;;;;;;;17.23;15.57;;;17.80;74.80;;;;;;5030599;28;20471;-68
2022/08/13 04:50:41;;;;;;;17.13;15.80;;;17.70;78.60;;;;;;5030503;28;20486;-68
2022/08/13 04:53:10;;;;;;;15.57;14.50;;;17.60;79.00;;;;;;5029348;28;20669;-68
2022/08/13 04:55:38;;;;;;;15.77;14.87;;;17.60;80.10;;;;;;5028755;28;21378;-67
2022/08/13 04:58:08;;;;;;;16.30;14.90;;;17.50;82.00;;;;;;5028819;28;20452;-68
2022/08/13 05:00:36;;;;;;;16.57;15.27;;;17.40;83.10;;;;;;5028709;28;21249;-68
2022/08/13 05:03:12;;;;;;;16.53;15.37;;;17.30;85.50;;;;;;5028996;28;20485;-68
2022/08/13 05:05:39;;;;;;;17.20;15.57;;;17.20;87.00;;;;;;5029722;28;20915;-67
2022/08/13 05:08:07;;;;;;;16.73;15.63;;;17.20;90.50;;;;;;5030126;28;20511;-67
2022/08/13 05:10:38;;;;;;;17.17;15.80;;;17.10;92.30;;;;;;5029430;28;20463;-67
2022/08/13 05:13:18;;;;;;;17.10;15.73;;;17.10;92.70;;;;;;5028142;28;20859;-68
2022/08/13 05:15:45;;;;;;;17.37;15.77;;;17.10;93.40;;;;;;5030715;28;20471;-68
2022/08/13 05:18:13;;;;;;;16.40;15.20;;;17.10;95.10;;;;;;5030183;28;20464;-68
2022/08/13 05:20:40;;;;;;;21.93;15.77;;;17.00;96.20;;;;;;5029734;28;21284;-68
2022/08/13 05:23:09;;;;;;;16.73;15.33;;;17.00;98.00;;;;;;5029037;28;20787;-67
2022/08/13 05:25:36;;;;;;;22.87;16.20;;;17.20;99.70;;;;;;5029110;28;22269;-68
2022/08/13 05:28:04;;;;;;;20.00;16.73;;;17.30;99.90;;;;;;5028831;28;20483;-68
2022/08/13 05:30:31;;;;;;;17.83;15.53;;;17.40;99.90;;;;;;5028231;28;20996;-68
2022/08/13 05:32:59;;;;;;;17.87;15.90;;;17.40;99.90;;;;;;5028976;28;20456;-68
2022/08/13 05:35:28;;;;;;;20.97;15.83;;;17.60;99.90;;;;;;5029570;28;20518;-68
2022/08/13 05:37:55;;;;;;;17.33;15.93;;;17.70;99.90;;;;;;5029652;28;20912;-68
2022/08/13 05:40:22;;;;;;;26.20;17.07;;;17.90;99.90;;;;;;5029006;28;20496;-68
2022/08/13 05:42:48;;;;;;;17.73;16.00;;;18.00;99.90;;;;;;5028882;28;20458;-68
2022/08/13 05:45:15;;;;;;;17.43;15.77;;;18.10;99.90;;;;;;5029812;28;20455;-68
2022/08/13 05:47:43;;;;;;;17.53;15.70;;;18.20;99.90;;;;;;5029635;28;20467;-67
2022/08/13 05:50:13;;;;;;;18.50;17.23;;;18.20;99.90;;;;;;5029169;28;20479;-68
2022/08/13 05:52:42;;;;;;;19.07;17.17;;;18.30;99.90;;;;;;5028611;28;20562;-67
2022/08/13 05:55:11;;;;;;;19.10;17.03;;;18.40;99.90;;;;;;5027109;28;20486;-67
2022/08/13 05:57:39;;;;;;;20.60;17.40;;;18.40;99.90;;;;;;5027735;28;20530;-68
2022/08/13 06:05:37;;;;;;;29.20;17.10;;;18.80;99.90;;;;;;5025038;28;20533;-69
2022/08/13 06:08:06;;;;;;;21.20;17.03;;;18.90;98.60;;;;;;5025987;28;20470;-67
2022/08/13 06:10:34;;;;;;;21.10;17.10;;;19.10;97.60;;;;;;5026556;28;21110;-67
2022/08/13 06:13:02;;;;;;;22.20;17.10;;;19.30;97.40;;;;;;5024698;28;22465;-68
2022/08/13 06:15:29;;;;;;;29.23;15.83;;;19.50;97.50;;;;;;5026151;28;21133;-68
2022/08/13 06:17:58;;;;;;;30.30;16.83;;;19.60;96.80;;;;;;5027487;28;20597;-68
2022/08/13 06:20:25;;;;;;;39.83;17.00;;;19.80;96.30;;;;;;5025919;28;20486;-68
2022/08/13 06:22:52;;;;;;;18.87;17.03;;;20.00;96.00;;;;;;5027823;28;20611;-69
2022/08/13 06:25:21;;;;;;;19.57;16.33;;;20.20;94.70;;;;;;5028208;28;20460;-68
2022/08/13 06:27:48;;;;;;;18.27;16.33;;;20.40;93.80;;;;;;5026909;28;21091;-68
2022/08/13 06:30:18;;;;;;;27.77;15.87;;;20.60;93.50;;;;;;5026202;28;20468;-68
2022/08/13 06:32:45;;;;;;;32.27;16.23;;;20.90;92.60;;;;;;5027717;28;20456;-67
2022/08/13 06:35:13;;;;;;;18.67;16.67;;;21.10;91.90;;;;;;5051161;28;20507;-67
2022/08/13 06:37:45;;;;;;;23.37;16.00;;;21.30;91.10;;;;;;5047701;28;20541;-68
2022/08/13 06:40:14;;;;;;;18.20;16.37;;;21.50;91.20;;;;;;5025757;28;20488;-67
2022/08/13 06:42:44;;;;;;;34.70;17.00;;;21.60;90.80;;;;;;5026263;28;20456;-68
2022/08/13 06:45:11;;;;;;;27.90;17.30;;;21.80;90.10;;;;;;5027204;28;20893;-67
2022/08/13 06:47:39;;;;;;;18.17;16.40;;;22.00;88.50;;;;;;5027770;28;20463;-69
2022/08/13 06:50:10;;;;;;;33.23;16.63;;;22.20;88.10;;;;;;5027283;28;20480;-68
2022/08/13 06:52:38;;;;;;;30.83;17.47;;;22.30;85.60;;;;;;5028053;28;21004;-69
2022/08/13 06:55:07;;;;;;;27.03;16.03;;;22.40;84.10;;;;;;5039105;28;20468;-68
2022/08/13 06:57:36;;;;;;;33.10;17.73;;;22.60;82.10;;;;;;5051444;28;20471;-68
2022/08/13 07:00:06;;;;;;;18.27;16.70;;;22.80;82.60;;;;;;5054212;28;20487;-67
2022/08/13 07:02:36;;;;;;;18.77;16.93;;;23.00;81.00;;;;;;5030487;28;20661;-68
2022/08/13 07:05:04;;;;;;;21.23;16.77;;;23.20;78.40;;;;;;5023284;28;20522;-68
2022/08/13 07:07:32;;;;;;;25.13;17.23;;;23.40;77.00;;;;;;5026323;28;20463;-68
2022/08/13 07:10:00;;;;;;;16.63;14.93;;;23.60;76.90;;;;;;5026922;28;20471;-69
2022/08/13 07:12:27;;;;;;;19.03;15.60;;;23.60;75.70;;;;;;5027306;28;20495;-68
2022/08/13 07:14:54;;;;;;;32.43;16.63;;;23.90;73.80;;;;;;5023683;28;20484;-68
2022/08/13 07:17:23;;;;;;;31.20;16.60;;;24.00;72.20;;;;;;5026948;28;20466;-68
2022/08/13 07:19:50;;;;;;;18.10;16.53;;;24.30;71.70;;;;;;5026214;28;20516;-68
2022/08/13 07:22:17;;;;;;;16.97;15.37;;;24.50;70.00;;;;;;5026917;28;20870;-69
2022/08/13 07:24:45;;;;;;;26.93;15.90;;;24.60;69.40;;;;;;5026107;28;20541;-68
2022/08/13 07:27:12;;;;;;;21.90;16.07;;;24.90;68.60;;;;;;5026666;28;20455;-68
2022/08/13 07:29:54;;;;;;;18.80;16.47;;;24.90;66.40;;;;;;5026238;28;20476;-69
2022/08/13 07:32:22;;;;;;;21.13;16.13;;;25.10;66.40;;;;;;5030591;28;20462;-68
2022/08/13 07:34:49;;;;;;;17.10;15.30;;;25.30;65.80;;;;;;5030444;28;20940;-69
2022/08/13 07:37:20;;;;;;;19.70;15.50;;;25.40;63.40;;;;;;5031516;28;20474;-68
2022/08/13 07:39:47;;;;;;;28.73;15.60;;;25.50;62.90;;;;;;5031320;28;21638;-68
2022/08/13 07:42:16;;;;;;;20.83;15.83;;;25.50;61.80;;;;;;5031395;28;20942;-68
2022/08/13 07:44:43;;;;;;;20.93;15.53;;;25.50;61.50;;;;;;5029308;28;21124;-69
2022/08/13 07:47:12;;;;;;;16.73;15.30;;;25.70;61.60;;;;;;5029928;28;20471;-68
2022/08/13 07:49:44;;;;;;;28.13;16.33;;;25.90;61.60;;;;;;5028997;28;20491;-69
2022/08/13 07:52:12;;;;;;;18.57;16.40;;;26.10;60.10;;;;;;5029617;28;20459;-69
2022/08/13 07:54:40;;;;;;;20.90;15.83;;;26.10;59.30;;;;;;5031409;28;20499;-69
2022/08/13 07:57:07;;;;;;;16.57;15.27;;;26.10;59.20;;;;;;5030333;28;20464;-70
2022/08/13 07:59:33;;;;;;;30.80;16.30;;;26.20;58.80;;;;;;5030263;28;20484;-70
2022/08/13 08:02:00;;;;;;;17.00;15.20;;;26.30;58.70;;;;;;5027130;28;20810;-69
2022/08/13 08:04:30;;;;;;;18.40;14.73;;;26.50;58.10;;;;;;5028901;28;20477;-68
2022/08/13 08:07:00;;;;;;;32.07;15.57;;;26.60;58.20;;;;;;5030812;28;20555;-69
2022/08/13 08:09:29;;;;;;;15.57;14.27;;;26.90;57.00;;;;;;5030368;28;21250;-68
2022/08/13 08:14:41;;;;;;;15.93;14.17;;;27.10;57.10;;;;;;5042471;28;20933;-69
2022/08/13 08:17:10;;;;;;;15.07;13.87;;;27.30;56.00;;;;;;5050990;28;20454;-69
2022/08/13 08:19:39;;;;;;;14.73;13.40;;;27.40;55.60;;;;;;5028550;28;20487;-70
2022/08/13 08:22:11;;;;;;;14.43;13.23;;;27.50;54.60;;;;;;5026990;28;22577;-69
2022/08/13 08:24:38;;;;;;;14.90;13.90;;;27.50;54.00;;;;;;5028092;28;20475;-69
2022/08/13 08:27:09;;;;;;;14.03;13.33;;;27.70;54.10;;;;;;5029355;28;20490;-68
2022/08/13 08:29:37;;;;;;;14.13;13.23;;;27.90;53.90;;;;;;5029093;28;20601;-69
2022/08/13 08:32:08;;;;;;;17.60;13.27;;;28.20;52.50;;;;;;5029568;28;20472;-69
2022/08/13 08:34:37;;;;;;;14.07;13.20;;;28.20;52.20;;;;;;5029970;28;20467;-69
2022/08/13 08:37:04;;;;;;;14.93;13.20;;;28.20;52.30;;;;;;5029845;28;20565;-69
2022/08/13 08:42:40;;;;;;;14.90;13.93;;;28.60;51.80;;;;;;5029093;28;20532;-70
2022/08/13 08:45:14;;;;;;;15.20;14.20;;;28.80;49.50;;;;;;5030832;28;21357;-69
2022/08/13 08:47:42;;;;;;;14.60;13.40;;;29.40;48.30;;;;;;5030502;28;20459;-68
2022/08/13 08:50:10;;;;;;;14.40;13.60;;;30.10;46.90;;;;;;5030397;28;20490;-69
2022/08/13 08:55:24;;;;;;;14.73;13.73;;;31.50;44.70;;;;;;5029753;28;20465;-70
2022/08/13 08:57:52;;;;;;;15.20;13.73;;;32.10;42.50;;;;;;5030031;28;20553;-69
2022/08/13 09:00:21;;;;;;;14.57;13.50;;;32.80;41.10;;;;;;5030005;28;20914;-68
2022/08/13 09:02:50;;;;;;;29.10;13.97;;;33.40;40.10;;;;;;5028951;28;20533;-68
2022/08/13 09:05:20;;;;;;;14.33;13.43;;;34.00;38.80;;;;;;5030155;28;20797;-68
2022/08/13 09:07:49;;;;;;;14.37;13.07;;;33.90;37.60;;;;;;5029990;28;20992;-68
2022/08/13 09:10:19;;;;;;;13.40;12.60;;;33.90;36.20;;;;;;5029430;28;20460;-68
2022/08/13 09:12:50;;;;;;;13.10;12.50;;;34.20;35.40;;;;;;5029381;28;20463;-67
2022/08/13 09:15:22;;;;;;;14.23;13.30;;;33.80;34.60;;;;;;5029072;28;20980;-69
2022/08/13 09:17:51;;;;;;;14.43;13.40;;;34.30;34.90;;;;;;5029826;28;20530;-69
2022/08/13 09:20:23;;;;;;;14.20;13.40;;;34.50;35.60;;;;;;5027848;28;20458;-69
2022/08/13 09:23:07;;;;;;;14.20;13.50;;;35.00;34.10;;;;;;5027520;28;20459;-68
2022/08/13 09:25:35;;;;;;;15.20;14.33;;;35.10;33.10;;;;;;5030273;28;20494;-69
2022/08/13 09:28:04;;;;;;;14.27;13.40;;;34.70;33.30;;;;;;5028677;28;21045;-69
2022/08/13 09:30:32;;;;;;;14.00;13.40;;;34.60;32.80;;;;;;5029766;28;20464;-69
2022/08/13 09:33:00;;;;;;;13.73;12.83;;;34.70;33.20;;;;;;5030222;28;20455;-69
2022/08/13 09:35:28;;;;;;;13.70;13.00;;;35.40;33.00;;;;;;5028042;28;21094;-70
2022/08/13 09:37:57;;;;;;;14.63;13.43;;;36.40;32.40;;;;;;5026543;28;21057;-68
2022/08/13 09:40:26;;;;;;;13.90;13.00;;;36.10;31.60;;;;;;5028459;28;21057;-70
2022/08/13 09:42:57;;;;;;;14.30;13.30;;;36.40;31.90;;;;;;5028315;28;20467;-70
2022/08/13 09:45:26;;;;;;;13.80;13.00;;;36.00;31.40;;;;;;5029064;28;21104;-69
2022/08/13 09:47:53;;;;;;;14.37;13.20;;;36.20;31.00;;;;;;5028861;28;22484;-69
2022/08/13 09:50:21;;;;;;;15.03;14.23;;;36.40;31.40;;;;;;5027458;28;20479;-70
2022/08/13 09:52:48;;;;;;;14.80;14.00;;;36.50;30.90;;;;;;5026261;28;22475;-69
2022/08/13 09:55:15;;;;;;;13.60;12.80;;;36.60;31.00;;;;;;5026273;28;20459;-69
2022/08/13 09:57:49;;;;;;;17.63;13.30;;;36.30;30.40;;;;;;5027146;28;20470;-68
2022/08/13 10:00:20;;;;;;;14.03;13.17;;;35.90;30.70;;;;;;5026920;28;20892;-69
2022/08/13 10:02:53;;;;;;;13.43;12.73;;;36.10;30.80;;;;;;5049977;28;20495;-69
2022/08/13 10:05:20;;;;;;;13.60;12.90;;;36.30;31.20;;;;;;5058129;28;20459;-69
2022/08/13 10:07:47;;;;;;;13.60;12.90;;;36.60;30.20;;;;;;5050405;28;20474;-69
2022/08/13 10:10:14;;;;;;;13.37;12.67;;;36.80;29.90;;;;;;5026393;28;20964;-68
2022/08/13 10:12:43;;;;;;;14.10;13.20;;;36.60;29.90;;;;;;5026319;28;20562;-69
2022/08/13 10:15:12;;;;;;;13.70;12.70;;;36.60;30.50;;;;;;5026766;28;21378;-69
2022/08/13 10:17:51;;;;;;;13.20;12.50;;;36.80;30.00;;;;;;5026942;28;21018;-68
2022/08/13 10:20:21;;;;;;;13.67;12.87;;;37.20;29.70;;;;;;5026567;28;20459;-69
2022/08/13 10:22:49;;;;;;;15.03;12.90;;;37.10;28.90;;;;;;5026692;28;20499;-68
2022/08/13 10:25:17;;;;;;;13.47;12.73;;;36.50;30.00;;;;;;5025576;28;20997;-70
2022/08/13 10:27:45;;;;;;;13.07;12.47;;;37.20;30.70;;;;;;5026636;28;21041;-69
2022/08/13 10:30:13;;;;;;;13.30;12.40;;;37.40;28.70;;;;;;5046535;28;20451;-69
2022/08/13 10:32:40;;;;;;;14.07;12.77;;;38.10;28.30;;;;;;5037887;28;20482;-70
2022/08/13 10:35:09;;;;;;;12.43;11.93;;;37.70;28.10;;;;;;5026208;28;20455;-68
2022/08/13 10:37:43;;;;;;;13.30;12.70;;;37.40;28.50;;;;;;5026256;28;20472;-69
2022/08/13 10:40:14;;;;;;;13.50;12.90;;;37.40;28.40;;;;;;5026350;28;20473;-69
2022/08/13 10:42:44;;;;;;;13.90;13.20;;;37.40;28.70;;;;;;5026753;28;20948;-69
2022/08/13 10:45:12;;;;;;;13.40;12.60;;;36.90;28.50;;;;;;5026936;28;20468;-69
2022/08/13 10:47:46;;;;;;;12.80;12.03;;;35.40;29.20;;;;;;5026156;28;20505;-70
2022/08/13 10:50:14;;;;;;;12.67;12.07;;;35.60;29.60;;;;;;5024618;28;20507;-70
2022/08/13 10:52:42;;;;;;;13.03;12.43;;;35.50;29.90;;;;;;5025308;28;20563;-69
2022/08/13 10:55:11;;;;;;;12.30;11.70;;;35.50;29.40;;;;;;5026375;28;20896;-70
2022/08/13 10:57:39;;;;;;;12.73;12.13;;;35.40;29.30;;;;;;5026236;28;20911;-69
2022/08/13 11:00:07;;;;;;;13.37;12.30;;;35.90;29.90;;;;;;5025608;28;20796;-70
2022/08/13 11:02:34;;;;;;;12.83;12.03;;;36.70;28.90;;;;;;5026077;28;20504;-69
2022/08/13 11:05:05;;;;;;;12.37;11.87;;;37.40;28.10;;;;;;5026171;28;20560;-70
2022/08/13 11:07:33;;;;;;;12.57;11.87;;;37.00;28.50;;;;;;5025810;28;20475;-69
2022/08/13 11:10:00;;;;;;;12.43;11.93;;;36.60;28.50;;;;;;5025811;28;20468;-69
2022/08/13 11:12:27;;;;;;;12.93;12.13;;;36.60;28.20;;;;;;5025113;28;20849;-70
2022/08/13 11:14:54;;;;;;;13.17;12.57;;;36.50;28.30;;;;;;5025471;28;20949;-70
2022/08/13 11:17:23;;;;;;;13.03;12.17;;;37.30;28.40;;;;;;5025852;28;20875;-70
2022/08/13 11:19:50;;;;;;;13.43;12.43;;;37.70;28.10;;;;;;5025731;28;20462;-71
2022/08/13 11:22:18;;;;;;;12.50;12.00;;;38.30;28.20;;;;;;5025388;28;20839;-70
2022/08/13 11:24:46;;;;;;;13.10;12.50;;;37.90;27.20;;;;;;5026199;28;20452;-70
2022/08/13 11:27:13;;;;;;;13.20;12.47;;;38.60;26.70;;;;;;5025611;28;20516;-70
2022/08/13 11:29:40;;;;;;;13.20;12.27;;;39.10;26.60;;;;;;5025256;28;22487;-69
2022/08/13 11:32:07;;;;;;;12.87;12.17;;;39.40;26.00;;;;;;5024844;28;20553;-69
2022/08/13 11:34:34;;;;;;;13.30;12.40;;;39.70;25.90;;;;;;5026291;28;20914;-69
2022/08/13 11:37:01;;;;;;;12.37;11.57;;;39.90;25.90;;;;;;5026497;28;21042;-70
2022/08/13 11:39:28;;;;;;;12.10;11.60;;;40.20;25.30;;;;;;5023289;28;20460;-67
2022/08/13 11:41:56;;;;;;;16.43;12.30;;;40.20;25.00;;;;;;5023749;28;20498;-68
2022/08/13 11:44:23;;;;;;;12.13;11.63;;;40.50;24.50;;;;;;5024063;28;20472;-68
2022/08/13 11:46:50;;;;;;;12.60;11.83;;;41.60;24.30;;;;;;5024396;28;20467;-71
2022/08/13 11:49:16;;;;;;;11.60;11.10;;;41.30;23.60;;;;;;5024235;28;20485;-70
2022/08/13 11:51:45;;;;;;;12.77;12.17;;;40.80;23.70;;;;;;5024528;28;21435;-68
2022/08/13 11:54:12;;;;;;;12.23;11.63;;;40.80;23.70;;;;;;5025792;28;20467;-69
2022/08/13 11:56:39;;;;;;;11.70;11.10;;;40.50;24.20;;;;;;5025716;28;20461;-68
2022/08/13 11:59:07;;;;;;;12.30;11.60;;;40.30;23.80;;;;;;5046394;28;20489;-68
2022/08/13 12:01:36;;;;;;;12.07;11.17;;;41.00;24.10;;;;;;5040518;28;20495;-69
2022/08/13 12:04:03;;;;;;;12.73;12.00;;;41.60;23.90;;;;;;5024372;28;21060;-69
2022/08/13 12:06:30;;;;;;;12.00;11.40;;;41.20;24.00;;;;;;5024665;28;20480;-70
2022/08/13 12:08:56;;;;;;;12.37;11.83;;;40.30;24.70;;;;;;5025385;28;22798;-70
2022/08/13 12:11:23;;;;;;;13.30;12.10;;;39.50;24.90;;;;;;5024610;28;20723;-69
2022/08/13 12:13:50;;;;;;;12.27;11.70;;;39.90;25.10;;;;;;5024515;28;20963;-69
2022/08/13 12:16:19;;;;;;;12.47;11.63;;;40.00;24.80;;;;;;5025207;28;20468;-70
2022/08/13 12:18:45;;;;;;;12.23;11.73;;;39.90;25.00;;;;;;5027525;28;20972;-70
2022/08/13 12:21:12;;;;;;;12.37;11.57;;;40.00;24.20;;;;;;5028526;28;21065;-68
2022/08/13 12:23:39;;;;;;;12.37;11.67;;;40.50;24.70;;;;;;5028304;28;20463;-70
2022/08/13 12:26:06;;;;;;;11.03;10.63;;;41.30;24.30;;;;;;5028683;28;20833;-69
2022/08/13 12:28:33;;;;;;;11.93;10.80;;;41.60;23.80;;;;;;5032881;28;20463;-69
2022/08/13 12:31:02;;;;;;;11.90;11.20;;;41.30;23.40;;;;;;5056494;28;20849;-68
2022/08/13 12:33:31;;;;;;;11.50;11.10;;;42.10;23.30;;;;;;5037055;28;20533;-68
2022/08/13 12:36:00;;;;;;;12.60;12.00;;;41.50;23.50;;;;;;5029858;28;20451;-69
2022/08/13 12:38:28;;;;;;;12.07;11.47;;;41.60;23.00;;;;;;5028394;28;20476;-70
2022/08/13 12:40:54;;;;;;;12.10;11.60;;;41.50;22.40;;;;;;5028397;28;20466;-69
2022/08/13 12:43:22;;;;;;;12.30;11.60;;;41.50;21.90;;;;;;5028335;28;21031;-70
2022/08/13 12:45:49;;;;;;;13.30;12.40;;;41.60;22.80;;;;;;5028544;28;20468;-69
2022/08/13 12:48:17;;;;;;;11.73;11.33;;;41.30;23.30;;;;;;5028243;28;20458;-68
2022/08/13 12:50:47;;;;;;;12.23;11.43;;;41.60;23.10;;;;;;5028632;28;20460;-70
2022/08/13 12:53:14;;;;;;;12.30;11.70;;;42.30;22.90;;;;;;5028040;28;20460;-70
2022/08/13 12:55:44;;;;;;;11.97;11.30;;;42.60;22.30;;;;;;5028753;28;20464;-70
2022/08/13 12:58:15;;;;;;;11.20;10.70;;;42.80;22.40;;;;;;5028469;28;20478;-70